createdAt,value
2023-01-11T03:29:29.834Z,80.77
2023-01-11T03:32:14.101Z,80.16
2023-01-11T03:34:51.302Z,80.00
2023-01-11T03:37:27.096Z,79.93
2023-01-11T03:40:04.102Z,79.60
2023-01-11T03:42:56.356Z,79.62
2023-01-11T03:45:29.097Z,80.09
2023-01-11T03:48:00.302Z,80.19
2023-01-11T03:50:31.890Z,80.48
2023-01-11T03:53:05.872Z,80.59
2023-01-11T03:55:41.737Z,80.73
2023-01-11T03:58:10.700Z,79.68
2023-01-11T04:00:41.609Z,80.01
2023-01-11T04:03:12.610Z,79.53
2023-01-11T04:05:45.960Z,80.43
2023-01-11T04:08:13.772Z,79.57
2023-01-11T04:10:41.670Z,79.65
2023-01-11T04:13:09.513Z,79.20
2023-01-11T04:15:37.433Z,79.42
2023-01-11T04:18:07.425Z,79.39
2023-01-11T04:20:36.956Z,78.96
2023-01-11T04:23:05.561Z,78.71
2023-01-11T04:25:33.754Z,77.75
2023-01-11T04:28:01.857Z,78.10
2023-01-11T04:30:29.728Z,77.59
2023-01-11T04:32:59.144Z,77.41
2023-01-11T04:35:28.726Z,76.94
2023-01-11T04:37:56.997Z,76.63
2023-01-11T04:40:25.145Z,76.26
2023-01-11T04:42:52.461Z,76.48
2023-01-11T04:45:20.758Z,75.75
2023-01-11T04:47:55.541Z,76.00
2023-01-11T04:50:24.282Z,76.22
2023-01-11T04:52:53.808Z,76.17
2023-01-11T04:55:21.842Z,76.07
2023-01-11T04:57:49.715Z,75.84
2023-01-11T05:00:18.451Z,76.09
2023-01-11T05:02:46.303Z,75.97
2023-01-11T05:05:14.071Z,76.56
2023-01-11T05:07:41.884Z,77.27
2023-01-11T05:10:12.355Z,77.28
2023-01-11T05:12:40.231Z,77.19
2023-01-11T05:15:09.660Z,77.12
2023-01-11T05:17:37.508Z,77.60
2023-01-11T05:20:06.070Z,77.12
2023-01-11T05:22:33.953Z,77.87
2023-01-11T05:25:01.780Z,77.82
2023-01-11T05:27:31.012Z,77.87
2023-01-11T05:29:58.890Z,77.72
2023-01-11T05:32:26.780Z,78.21
2023-01-11T05:34:54.656Z,78.27
2023-01-11T05:37:22.499Z,78.85
2023-01-11T05:39:50.388Z,78.95
2023-01-11T05:42:18.221Z,79.13
2023-01-11T05:45:04.548Z,79.20
2023-01-11T05:47:32.420Z,79.46
2023-01-11T05:50:00.269Z,79.31
2023-01-11T05:52:28.077Z,78.42
2023-01-11T05:54:55.916Z,79.15
2023-01-11T05:57:23.833Z,78.76
2023-01-11T05:59:53.039Z,79.05
2023-01-11T06:02:21.061Z,78.81
2023-01-11T06:04:49.061Z,78.18
2023-01-11T06:07:16.923Z,79.26
2023-01-11T06:09:44.777Z,78.65
2023-01-11T06:12:12.642Z,78.73
2023-01-11T06:14:40.453Z,78.17
2023-01-11T06:17:09.846Z,78.37
2023-01-11T06:19:37.704Z,78.23
2023-01-11T06:22:05.531Z,78.60
2023-01-11T06:24:33.421Z,78.99
2023-01-11T06:27:01.262Z,78.70
2023-01-11T06:29:29.096Z,78.44
2023-01-11T06:31:58.198Z,78.26
2023-01-11T06:34:27.474Z,78.47
2023-01-11T06:36:55.308Z,77.58
2023-01-11T06:39:23.157Z,77.95
2023-01-11T06:41:51.022Z,77.93
2023-01-11T06:44:19.015Z,77.50
2023-01-11T06:46:46.827Z,77.46
2023-01-11T06:49:14.818Z,77.78
2023-01-11T06:51:44.043Z,77.75
2023-01-11T06:54:11.909Z,77.33
2023-01-11T06:56:39.771Z,77.92
2023-01-11T06:59:07.647Z,77.25
2023-01-11T07:01:35.714Z,77.69
2023-01-11T07:04:03.593Z,77.39
2023-01-11T07:06:32.181Z,77.04
2023-01-11T07:09:01.435Z,76.83
2023-01-11T07:11:31.597Z,77.01
2023-01-11T07:13:59.437Z,77.08
2023-01-11T07:16:27.254Z,76.39
2023-01-11T07:18:55.119Z,76.34
2023-01-11T07:21:23.001Z,76.36
2023-01-11T07:23:50.852Z,76.25
2023-01-11T07:26:21.564Z,76.45
2023-01-11T07:28:49.462Z,76.53
2023-01-11T07:31:17.353Z,76.07
2023-01-11T07:33:45.246Z,76.29
2023-01-11T07:36:13.190Z,76.88
2023-01-11T07:38:41.029Z,76.44
2023-01-11T07:41:22.869Z,76.75
2023-01-11T07:43:52.076Z,77.16
2023-01-11T07:46:20.067Z,76.54
2023-01-11T07:48:48.260Z,75.94
2023-01-11T07:51:17.948Z,75.97
2023-01-11T07:53:45.783Z,75.97
2023-01-11T07:56:13.662Z,75.67
2023-01-11T07:58:41.487Z,75.28
2023-01-11T08:01:10.693Z,74.81
2023-01-11T08:03:38.683Z,74.49
2023-01-11T08:06:07.159Z,74.83
2023-01-11T08:08:35.056Z,74.60
2023-01-11T08:11:20.198Z,74.51
2023-01-11T08:14:05.769Z,74.47
2023-01-11T08:16:34.960Z,74.26
2023-01-11T08:19:02.975Z,74.54
2023-01-11T08:21:31.431Z,73.68
2023-01-11T08:24:00.793Z,73.18
2023-01-11T08:26:28.925Z,73.56
2023-01-11T08:28:57.280Z,74.13
2023-01-11T08:31:26.240Z,73.73
2023-01-11T08:33:55.507Z,73.84
2023-01-11T08:36:24.792Z,73.53
2023-01-11T08:38:55.384Z,72.66
2023-01-11T08:41:23.223Z,73.44
2023-01-11T08:43:51.209Z,73.05
2023-01-11T08:46:20.425Z,72.78
2023-01-11T08:48:48.568Z,73.29
2023-01-11T08:51:18.478Z,72.45
2023-01-11T08:53:46.439Z,73.23
2023-01-11T08:56:14.801Z,72.45
2023-01-11T08:58:42.651Z,72.97
2023-01-11T09:01:12.116Z,72.33
2023-01-11T09:03:39.925Z,72.73
2023-01-11T09:06:08.533Z,72.77
2023-01-11T09:08:37.725Z,72.17
2023-01-11T09:11:25.910Z,72.63
2023-01-11T09:13:53.708Z,73.19
2023-01-11T09:16:21.664Z,72.67
2023-01-11T09:18:49.652Z,71.99
2023-01-11T09:21:18.559Z,73.13
2023-01-11T09:23:47.881Z,71.73
2023-01-11T09:26:16.165Z,71.51
2023-01-11T09:28:44.009Z,71.56
2023-01-11T09:31:11.933Z,71.65
2023-01-11T09:33:39.885Z,71.99
2023-01-11T09:36:08.561Z,72.57
2023-01-11T09:38:39.177Z,71.66
2023-01-11T09:41:28.017Z,72.42
2023-01-11T09:44:06.430Z,71.89
2023-01-11T09:46:36.973Z,71.36
2023-01-11T09:49:07.652Z,71.95
2023-01-11T09:51:39.603Z,71.60
2023-01-11T09:54:10.692Z,71.74
2023-01-11T09:56:53.879Z,71.26
2023-01-11T09:59:33.804Z,72.06
2023-01-11T10:02:16.347Z,72.03
2023-01-11T10:05:10.059Z,72.41
2023-01-11T10:18:25.903Z,72.30
2023-01-11T10:18:34.080Z,71.86
2023-01-11T10:20:05.081Z,72.67
2023-01-11T10:22:41.899Z,72.19
2023-01-11T10:25:21.849Z,72.39
2023-01-11T10:27:58.896Z,72.68
2023-01-11T10:30:41.943Z,72.78
2023-01-11T10:33:46.294Z,73.00
2023-01-11T10:36:39.617Z,72.91
2023-01-11T10:39:31.980Z,72.96
2023-01-11T10:42:10.768Z,73.29
2023-01-11T10:44:48.687Z,72.70
2023-01-11T10:47:24.876Z,73.53
2023-01-11T10:50:03.515Z,73.33
2023-01-11T10:52:41.478Z,73.96
2023-01-11T10:55:13.965Z,73.47
2023-01-11T10:58:00.379Z,73.17
2023-01-11T11:00:37.301Z,73.29
2023-01-11T11:03:32.797Z,74.44
2023-01-11T11:06:09.612Z,74.89
2023-01-11T11:08:46.745Z,75.68
2023-01-11T11:11:21.943Z,76.64
2023-01-11T11:14:03.214Z,75.75
2023-01-11T11:16:52.664Z,76.38
2023-01-11T11:19:26.672Z,75.13
2023-01-11T11:21:54.600Z,76.26
2023-01-11T11:24:33.176Z,76.40
2023-01-11T11:27:09.332Z,76.67
2023-01-11T11:29:43.522Z,75.74
2023-01-11T11:32:22.722Z,75.46
2023-01-11T11:34:53.274Z,75.35
2023-01-11T11:37:24.077Z,75.30
2023-01-11T11:39:54.695Z,74.52
2023-01-11T11:42:23.686Z,75.13
2023-01-11T11:45:16.903Z,75.33
2023-01-11T11:48:01.984Z,75.63
2023-01-11T11:50:44.178Z,76.57
2023-01-11T11:53:26.380Z,77.29
2023-01-11T11:55:55.622Z,77.88
2023-01-11T11:58:27.366Z,77.12
2023-01-11T12:00:55.871Z,77.39
2023-01-11T12:03:30.063Z,77.98
2023-01-11T12:06:02.923Z,78.19
2023-01-11T12:08:34.126Z,77.17
2023-01-11T12:11:06.796Z,76.88
2023-01-11T12:13:37.394Z,76.85
2023-01-11T12:16:08.295Z,77.30
2023-01-11T12:18:43.020Z,76.90
2023-01-11T12:21:24.117Z,76.89
2023-01-11T12:24:10.853Z,77.07
2023-01-11T12:26:49.606Z,77.14
2023-01-11T12:29:46.513Z,77.99
2023-01-11T12:32:32.697Z,77.93
2023-01-11T12:35:20.757Z,78.29
2023-01-11T12:38:17.179Z,77.91
2023-01-11T12:40:59.969Z,78.42
2023-01-11T12:43:43.135Z,79.17
2023-01-11T12:46:25.899Z,78.96
2023-01-11T12:49:13.981Z,79.51
2023-01-11T12:52:03.668Z,79.94
2023-01-11T12:55:01.237Z,80.65
2023-01-11T12:57:41.696Z,80.77
2023-01-11T13:00:28.215Z,81.84
2023-01-11T13:03:20.241Z,81.97
2023-01-11T13:06:02.859Z,82.42
2023-01-11T13:08:46.180Z,82.56
2023-01-11T13:11:36.540Z,82.52
2023-01-11T13:14:28.222Z,83.55
2023-01-11T13:17:14.696Z,84.20
2023-01-11T13:19:53.612Z,84.02
2023-01-11T13:22:29.990Z,84.42
2023-01-11T13:25:02.551Z,84.71
2023-01-11T13:27:32.808Z,85.14
2023-01-11T13:30:03.089Z,86.02
2023-01-11T13:32:37.468Z,85.69
2023-01-11T13:35:16.371Z,86.47
2023-01-11T13:37:50.257Z,86.64
2023-01-11T13:40:24.656Z,86.96
2023-01-11T13:42:58.968Z,87.22
2023-01-11T13:45:31.506Z,86.71
2023-01-11T13:48:09.353Z,86.81
2023-01-11T13:50:45.435Z,86.54
2023-01-11T13:53:26.485Z,87.52
2023-01-11T13:56:02.998Z,87.18
2023-01-11T13:58:43.222Z,87.22
2023-01-11T14:01:15.680Z,86.53
2023-01-11T14:03:51.044Z,87.24
2023-01-11T14:06:45.607Z,86.95
2023-01-11T14:09:37.633Z,86.96
2023-01-11T14:12:15.386Z,86.90
2023-01-11T14:15:02.926Z,87.06
2023-01-11T14:17:55.325Z,87.23
2023-01-11T14:20:35.366Z,87.22
2023-01-11T14:23:12.280Z,86.55
2023-01-11T14:26:03.654Z,86.65
2023-01-11T14:28:47.685Z,86.76
2023-01-11T14:31:54.891Z,86.01
2023-01-11T14:34:51.007Z,85.56
2023-01-11T14:38:13.796Z,85.98
2023-01-11T14:41:10.794Z,85.82
2023-01-11T14:44:06.841Z,87.02
2023-01-11T14:47:03.067Z,86.81
2023-01-11T14:49:51.283Z,86.31
2023-01-11T14:52:39.090Z,86.71
2023-01-11T14:55:17.627Z,86.36
2023-01-11T14:58:02.654Z,86.80
2023-01-11T15:01:06.530Z,86.53
2023-01-11T15:03:55.935Z,86.75
2023-01-11T15:06:24.643Z,87.10
2023-01-11T15:08:55.339Z,87.42
2023-01-11T15:11:41.844Z,87.61
2023-01-11T15:14:32.865Z,87.58
2023-01-11T15:17:20.619Z,87.92
2023-01-11T15:19:53.306Z,87.68
2023-01-11T15:22:31.094Z,88.53
2023-01-11T15:25:02.422Z,89.01
2023-01-11T15:27:35.271Z,89.00
2023-01-11T15:30:05.791Z,89.02
2023-01-11T15:32:35.693Z,89.08
2023-01-11T15:35:33.692Z,89.18
2023-01-11T15:38:13.933Z,88.47
2023-01-11T15:40:46.934Z,88.14
2023-01-11T15:43:50.552Z,88.62
2023-01-11T15:46:56.408Z,88.71
2023-01-11T15:50:03.222Z,88.06
2023-01-11T15:53:17.657Z,88.00
2023-01-11T15:56:10.055Z,88.22
2023-01-11T15:59:10.991Z,88.55
2023-01-11T16:01:59.604Z,89.35
2023-01-11T16:04:34.884Z,88.98
2023-01-11T16:07:14.024Z,88.93
2023-01-11T16:10:09.877Z,89.21
2023-01-11T16:13:03.252Z,89.33
2023-01-11T16:15:53.545Z,89.69
2023-01-11T16:18:26.636Z,89.59
2023-01-11T16:21:02.631Z,88.99
2023-01-11T16:23:32.792Z,89.26
2023-01-11T16:26:04.985Z,89.11
2023-01-11T16:28:32.878Z,89.50
2023-01-11T16:31:02.970Z,89.36
2023-01-11T16:33:33.429Z,89.32
2023-01-11T16:36:12.572Z,89.55
2023-01-11T16:39:03.838Z,89.97
2023-01-11T16:41:42.178Z,89.72
2023-01-11T16:44:23.319Z,89.47
2023-01-11T16:47:11.473Z,89.47
2023-01-11T16:49:39.639Z,89.08
2023-01-11T16:52:45.535Z,89.67
2023-01-11T16:55:32.465Z,90.08
2023-01-11T16:58:05.778Z,89.87
2023-01-11T17:00:38.047Z,90.19
2023-01-11T17:03:19.571Z,90.25
2023-01-11T17:05:55.550Z,90.46
2023-01-11T17:08:29.606Z,90.30
2023-01-11T17:11:03.942Z,89.97
2023-01-11T17:14:03.266Z,89.78
2023-01-11T17:16:37.724Z,89.63
2023-01-11T17:19:14.077Z,89.66
2023-01-11T17:21:48.786Z,89.41
2023-01-11T17:24:19.080Z,89.12
2023-01-11T17:26:51.297Z,89.27
2023-01-11T17:29:29.189Z,89.34
2023-01-11T17:32:00.665Z,89.18
2023-01-11T17:34:34.098Z,88.86
2023-01-11T17:37:04.502Z,89.21
2023-01-11T17:39:35.922Z,88.72
2023-01-11T17:42:24.509Z,88.73
2023-01-11T17:45:14.925Z,88.85
2023-01-11T17:47:45.506Z,88.64
2023-01-11T17:50:39.118Z,88.00
2023-01-11T17:53:15.210Z,87.64
2023-01-11T17:55:52.387Z,87.28
2023-01-11T17:58:26.255Z,87.32
2023-01-11T18:01:18.127Z,87.42
2023-01-11T18:03:48.641Z,87.18
2023-01-11T18:06:27.615Z,87.57
2023-01-11T18:08:58.509Z,87.46
2023-01-11T18:11:29.640Z,87.17
2023-01-11T18:14:01.497Z,87.27
2023-01-11T18:16:31.441Z,87.33
2023-01-11T18:18:59.384Z,87.18
2023-01-11T18:21:41.076Z,87.17
2023-01-11T18:24:28.175Z,87.23
2023-01-11T18:27:08.653Z,86.61
2023-01-11T18:29:49.059Z,87.08
2023-01-11T18:32:18.908Z,86.38
2023-01-11T18:34:50.509Z,86.42
2023-01-11T18:37:19.469Z,86.20
2023-01-11T18:39:47.319Z,86.45
2023-01-11T18:42:21.056Z,86.23
2023-01-11T18:44:49.686Z,86.42
2023-01-11T18:47:22.063Z,85.52
2023-01-11T18:49:51.511Z,85.36
2023-01-11T18:52:20.404Z,85.13
2023-01-11T18:54:48.893Z,84.77
2023-01-11T18:57:16.794Z,85.11
2023-01-11T18:59:44.682Z,84.79
2023-01-11T19:04:56.070Z,84.58
2023-01-11T19:07:24.254Z,84.74
2023-01-11T19:09:54.708Z,84.12
2023-01-11T19:12:23.487Z,84.26
2023-01-11T19:14:51.573Z,84.33
2023-01-11T19:17:20.859Z,83.62
2023-01-11T19:19:48.837Z,83.55
2023-01-11T19:22:16.947Z,84.04
2023-01-11T19:24:44.851Z,83.89
2023-01-11T19:27:13.465Z,83.43
2023-01-11T19:29:41.642Z,84.25
2023-01-11T19:32:10.490Z,84.56
2023-01-11T19:34:40.679Z,84.80
2023-01-11T19:37:09.043Z,84.29
2023-01-11T19:39:37.157Z,84.72
2023-01-11T19:42:05.370Z,85.10
2023-01-11T19:44:35.568Z,84.91
2023-01-11T19:47:11.524Z,84.22
2023-01-11T19:49:42.184Z,84.68
2023-01-11T19:52:13.897Z,84.30
2023-01-11T19:54:42.903Z,84.40
2023-01-11T19:57:12.244Z,83.73
2023-01-11T19:59:40.190Z,83.33
2023-01-11T20:02:08.906Z,83.54
2023-01-11T20:04:37.222Z,82.50
2023-01-11T20:07:06.703Z,82.04
2023-01-11T20:09:37.493Z,81.95
2023-01-11T20:12:06.009Z,81.62
2023-01-11T20:14:34.445Z,81.51
2023-01-11T20:17:02.506Z,80.92
2023-01-11T20:19:30.406Z,81.26
2023-01-11T20:21:58.341Z,81.18
2023-01-11T20:24:29.939Z,81.47
2023-01-11T20:26:59.751Z,81.52
2023-01-11T20:29:27.801Z,81.79
2023-01-11T20:31:55.855Z,81.75
2023-01-11T20:34:25.618Z,82.54
2023-01-11T20:36:53.866Z,82.61
2023-01-11T20:39:21.741Z,82.28
2023-01-11T20:41:51.236Z,82.39
2023-01-11T20:44:23.765Z,82.34
2023-01-11T20:46:52.952Z,82.02
2023-01-11T20:49:23.892Z,82.55
2023-01-11T20:51:51.936Z,82.84
2023-01-11T20:54:20.261Z,83.03
2023-01-11T20:56:48.308Z,83.09
2023-01-11T20:59:20.107Z,83.28
2023-01-11T21:01:48.621Z,83.82
2023-01-11T21:04:17.982Z,83.03
2023-01-11T21:06:48.704Z,82.48
2023-01-11T21:09:18.489Z,82.63
2023-01-11T21:11:52.558Z,82.64
2023-01-11T21:14:22.634Z,82.01
2023-01-11T21:16:50.915Z,81.83
2023-01-11T21:19:18.828Z,81.37
2023-01-11T21:21:49.713Z,80.87
2023-01-11T21:24:18.087Z,80.02
2023-01-11T21:26:47.976Z,80.00
2023-01-11T21:29:15.942Z,80.26
2023-01-11T21:31:45.290Z,80.56
2023-01-11T21:34:14.332Z,80.03
2023-01-11T21:36:43.666Z,79.46
2023-01-11T21:39:14.052Z,79.90
2023-01-11T21:41:58.628Z,80.04
2023-01-11T21:44:33.345Z,80.49
2023-01-11T21:47:04.237Z,79.85
2023-01-11T21:49:32.424Z,80.13
2023-01-11T21:52:00.827Z,80.49
2023-01-11T21:54:28.719Z,80.62
2023-01-11T21:56:56.634Z,80.34
2023-01-11T21:59:24.796Z,80.85
2023-01-11T22:01:52.698Z,80.74
2023-01-11T22:04:22.476Z,80.81
2023-01-11T22:06:55.879Z,80.28
2023-01-11T22:09:25.561Z,80.83
2023-01-11T22:11:53.604Z,80.94
2023-01-11T22:14:21.540Z,81.28
2023-01-11T22:16:49.374Z,81.36
2023-01-11T22:19:17.625Z,81.48
2023-01-11T22:21:46.907Z,81.24
2023-01-11T22:24:15.465Z,81.79
2023-01-11T22:26:43.353Z,81.34
2023-01-11T22:29:15.277Z,82.39
2023-01-11T22:31:46.887Z,82.21
2023-01-11T22:34:15.642Z,82.35
2023-01-11T22:36:44.813Z,82.23
2023-01-11T22:39:15.697Z,82.68
2023-01-11T22:41:46.035Z,82.69
2023-01-11T22:44:14.872Z,82.62
2023-01-11T22:46:43.449Z,82.81
2023-01-11T22:49:12.772Z,82.97
2023-01-11T22:51:42.241Z,82.70
2023-01-11T22:54:10.617Z,82.87
2023-01-11T22:56:40.497Z,83.21
2023-01-11T22:59:09.185Z,82.97
2023-01-11T23:01:39.057Z,83.44
2023-01-11T23:04:09.722Z,82.86
2023-01-11T23:06:39.672Z,82.68
2023-01-11T23:09:12.370Z,82.81
2023-01-11T23:12:00.207Z,82.57
2023-01-11T23:14:30.747Z,82.72
2023-01-11T23:17:00.275Z,82.16
2023-01-11T23:19:28.219Z,82.09
2023-01-11T23:21:56.081Z,82.26
2023-01-11T23:24:23.971Z,82.32
2023-01-11T23:26:53.385Z,82.34
2023-01-11T23:29:21.278Z,82.63
2023-01-11T23:31:49.287Z,81.94
2023-01-11T23:34:17.356Z,81.87
2023-01-11T23:36:45.200Z,82.02
2023-01-11T23:39:16.279Z,82.48
2023-01-11T23:42:01.629Z,81.88
2023-01-11T23:44:31.391Z,82.38
2023-01-11T23:47:16.807Z,82.08
2023-01-11T23:49:44.748Z,82.41
2023-01-11T23:52:13.174Z,82.05
2023-01-11T23:54:41.269Z,82.21
2023-01-11T23:57:12.348Z,82.13
2023-01-11T23:59:42.892Z,82.01
